createdAt,value
2018-09-20T00:01:32.380Z,16.48
2018-09-20T00:04:03.017Z,16.47
2018-09-20T00:06:32.802Z,16.43
2018-09-20T00:09:02.716Z,16.42
2018-09-20T00:11:32.912Z,16.39
2018-09-20T00:14:02.472Z,16.38
2018-09-20T00:16:32.954Z,16.36
2018-09-20T00:19:02.585Z,16.36
2018-09-20T00:21:32.373Z,16.36
2018-09-20T00:24:01.901Z,16.36
2018-09-20T00:26:31.705Z,16.39
2018-09-20T00:29:01.266Z,16.38
2018-09-20T00:31:33.803Z,16.42
2018-09-20T00:34:03.263Z,16.43
2018-09-20T00:36:32.843Z,16.44
2018-09-20T00:39:04.502Z,16.38
2018-09-20T00:41:34.056Z,16.38
2018-09-20T00:44:03.546Z,16.41
2018-09-20T00:46:33.206Z,16.39
2018-09-20T00:49:03.848Z,16.42
2018-09-20T00:51:34.448Z,16.47
2018-09-20T00:54:06.397Z,16.48
2018-09-20T00:56:35.921Z,16.55
2018-09-20T00:59:06.414Z,16.60
2018-09-20T01:01:36.008Z,16.71
2018-09-20T01:04:05.517Z,16.69
2018-09-20T01:06:35.055Z,16.64
2018-09-20T01:09:12.606Z,16.62
2018-09-20T01:11:42.132Z,16.60
2018-09-20T01:14:11.608Z,16.53
2018-09-20T01:16:41.101Z,16.48
2018-09-20T01:19:10.987Z,16.40
2018-09-20T01:21:40.530Z,16.38
2018-09-20T01:24:09.986Z,16.32
2018-09-20T01:26:39.618Z,16.28
2018-09-20T01:29:09.109Z,16.23
2018-09-20T01:31:38.594Z,16.21
2018-09-20T01:34:11.036Z,16.21
2018-09-20T01:36:40.813Z,16.20
2018-09-20T01:39:13.064Z,16.14
2018-09-20T01:41:42.759Z,16.10
2018-09-20T01:44:15.395Z,16.07
2018-09-20T01:46:45.485Z,16.08
2018-09-20T01:49:15.158Z,16.01
2018-09-20T01:51:44.633Z,16.02
2018-09-20T01:54:14.371Z,16.00
2018-09-20T01:56:49.310Z,16.03
2018-09-20T01:59:19.019Z,16.04
2018-09-20T02:01:48.562Z,16.06
2018-09-20T02:04:18.506Z,16.09
2018-09-20T02:06:50.499Z,16.14
2018-09-20T02:09:20.064Z,16.22
2018-09-20T02:11:49.629Z,16.27
2018-09-20T02:14:19.810Z,16.25
2018-09-20T02:16:49.527Z,16.18
2018-09-20T02:19:19.090Z,16.08
2018-09-20T02:21:48.731Z,16.02
2018-09-20T02:24:18.178Z,15.94
2018-09-20T02:26:51.302Z,15.90
2018-09-20T02:29:20.897Z,15.88
2018-09-20T02:31:50.371Z,15.86
2018-09-20T02:34:19.956Z,15.87
2018-09-20T02:36:49.902Z,15.87
2018-09-20T02:39:22.029Z,15.87
2018-09-20T02:41:51.630Z,15.87
2018-09-20T02:47:21.496Z,15.89
2018-09-20T02:49:51.400Z,15.88
2018-09-20T02:52:20.860Z,15.89
2018-09-20T02:54:50.493Z,15.94
2018-09-20T02:57:20.325Z,15.94
2018-09-20T03:00:21.327Z,15.94
2018-09-20T03:02:50.958Z,15.88
2018-09-20T03:05:21.778Z,15.83
2018-09-20T03:07:51.340Z,15.83
2018-09-20T03:10:21.068Z,15.79
2018-09-20T03:12:50.561Z,15.76
2018-09-20T03:15:20.057Z,15.76
2018-09-20T03:17:49.611Z,15.74
2018-09-20T03:20:19.369Z,15.74
2018-09-20T03:22:49.050Z,15.78
2018-09-20T03:25:18.575Z,15.82
2018-09-20T03:27:48.306Z,15.86
2018-09-20T03:30:18.060Z,15.93
2018-09-20T03:32:47.649Z,15.97
2018-09-20T03:35:17.631Z,15.96
2018-09-20T03:37:47.158Z,15.96
2018-09-20T03:40:16.793Z,15.96
2018-09-20T03:42:47.136Z,15.93
2018-09-20T03:45:18.040Z,15.90
2018-09-20T03:47:47.682Z,15.86
2018-09-20T03:50:17.762Z,15.82
2018-09-20T03:52:48.085Z,15.70
2018-09-20T03:55:17.831Z,15.66
2018-09-20T03:57:47.879Z,15.62
2018-09-20T04:00:45.878Z,15.62
2018-09-20T04:03:15.519Z,15.63
2018-09-20T04:05:45.203Z,15.72
2018-09-20T04:08:37.449Z,15.74
2018-09-20T04:11:08.147Z,15.79
2018-09-20T04:13:39.563Z,15.80
2018-09-20T04:16:12.623Z,15.76
2018-09-20T04:18:44.514Z,15.78
2018-09-20T04:21:18.671Z,15.76
2018-09-20T04:23:52.198Z,15.75
2018-09-20T04:26:22.349Z,15.74
2018-09-20T04:28:57.448Z,15.71
2018-09-20T04:31:31.089Z,15.66
2018-09-20T04:34:02.418Z,15.62
2018-09-20T04:36:32.364Z,15.60
2018-09-20T04:39:02.182Z,15.56
2018-09-20T04:41:34.976Z,15.51
2018-09-20T04:44:04.477Z,15.44
2018-09-20T04:46:37.842Z,15.41
2018-09-20T04:49:07.345Z,15.43
2018-09-20T04:51:37.721Z,15.46
2018-09-20T04:54:07.824Z,15.46
2018-09-20T04:56:37.664Z,15.47
2018-09-20T04:59:07.432Z,15.43
2018-09-20T05:01:37.146Z,15.41
2018-09-20T05:04:06.976Z,15.39
2018-09-20T05:06:38.371Z,15.42
2018-09-20T05:09:15.329Z,15.46
2018-09-20T05:11:45.403Z,15.49
2018-09-20T05:14:15.983Z,15.45
2018-09-20T05:16:45.506Z,15.40
2018-09-20T05:19:15.382Z,15.41
2018-09-20T05:21:45.338Z,15.36
2018-09-20T05:24:14.851Z,15.37
2018-09-20T05:26:44.375Z,15.37
2018-09-20T05:29:13.909Z,15.41
2018-09-20T05:31:43.645Z,15.43
2018-09-20T05:34:13.181Z,15.50
2018-09-20T05:36:45.318Z,15.54
2018-09-20T05:39:14.960Z,15.59
2018-09-20T05:41:44.498Z,15.65
2018-09-20T05:44:14.313Z,15.71
2018-09-20T05:46:44.432Z,15.82
2018-09-20T05:49:13.964Z,15.89
2018-09-20T05:51:43.701Z,15.94
2018-09-20T05:54:13.174Z,15.98
2018-09-20T05:56:48.301Z,15.99
2018-09-20T05:59:18.439Z,16.04
2018-09-20T06:01:47.993Z,16.09
2018-09-20T06:04:17.607Z,16.13
2018-09-20T06:06:49.529Z,16.10
2018-09-20T06:09:19.397Z,16.13
2018-09-20T06:11:49.211Z,16.17
2018-09-20T06:14:21.517Z,16.18
2018-09-20T06:16:52.467Z,16.19
2018-09-20T06:19:22.903Z,16.23
2018-09-20T06:21:52.689Z,16.28
2018-09-20T06:24:22.198Z,16.27
2018-09-20T06:26:51.994Z,16.34
2018-09-20T06:29:21.522Z,16.39
2018-09-20T06:31:51.078Z,16.47
2018-09-20T06:34:20.541Z,16.59
2018-09-20T06:36:50.557Z,16.69
2018-09-20T06:39:19.956Z,16.84
2018-09-20T06:41:49.731Z,17.04
2018-09-20T06:44:19.167Z,17.19
2018-09-20T06:46:48.784Z,17.37
2018-09-20T06:49:18.293Z,17.58
2018-09-20T06:51:50.375Z,17.72
2018-09-20T06:54:19.798Z,17.94
2018-09-20T06:56:49.252Z,18.11
2018-09-20T06:59:18.732Z,18.29
2018-09-20T07:01:48.245Z,18.45
2018-09-20T07:04:17.681Z,18.63
2018-09-20T07:06:47.481Z,18.75
2018-09-20T07:09:17.402Z,18.90
2018-09-20T07:11:46.866Z,19.04
2018-09-20T07:14:16.490Z,19.21
2018-09-20T07:16:45.976Z,19.39
2018-09-20T07:19:15.541Z,19.61
2018-09-20T07:21:45.332Z,20.04
2018-09-20T07:24:14.893Z,20.64
2018-09-20T07:26:44.734Z,21.29
2018-09-20T07:29:14.331Z,21.83
2018-09-20T07:31:45.149Z,22.24
2018-09-20T07:34:14.785Z,22.55
2018-09-20T07:36:44.924Z,23.08
2018-09-20T07:39:14.433Z,23.44
2018-09-20T07:41:44.537Z,23.98
2018-09-20T07:44:14.132Z,24.34
2018-09-20T07:46:44.334Z,24.89
2018-09-20T07:49:13.765Z,25.18
2018-09-20T07:51:43.668Z,25.36
2018-09-20T07:54:14.231Z,25.99
2018-09-20T07:56:44.261Z,26.06
2018-09-20T07:59:13.968Z,26.43
2018-09-20T08:01:44.483Z,26.60
2018-09-20T08:04:14.141Z,26.98
2018-09-20T08:06:43.797Z,27.68
2018-09-20T08:09:14.170Z,28.68
2018-09-20T08:11:44.032Z,28.80
2018-09-20T08:14:13.594Z,29.19
2018-09-20T08:16:44.659Z,30.16
2018-09-20T08:19:14.171Z,30.46
2018-09-20T08:21:44.172Z,31.15
2018-09-20T08:24:13.721Z,30.77
2018-09-20T08:26:44.831Z,30.32
2018-09-20T08:29:14.297Z,30.88
2018-09-20T08:31:43.845Z,30.53
2018-09-20T08:34:13.353Z,29.47
2018-09-20T08:36:45.338Z,29.63
2018-09-20T08:39:14.849Z,30.18
2018-09-20T08:41:44.630Z,30.62
2018-09-20T08:44:15.250Z,30.72
2018-09-20T08:46:45.942Z,30.35
2018-09-20T08:49:15.532Z,30.64
2018-09-20T08:51:47.422Z,30.62
2018-09-20T08:54:17.000Z,31.37
2018-09-20T08:56:46.735Z,32.33
2018-09-20T08:59:16.576Z,32.31
2018-09-20T09:01:46.439Z,32.50
2018-09-20T09:04:15.882Z,32.51
2018-09-20T09:06:45.533Z,32.45
2018-09-20T09:09:15.074Z,32.34
2018-09-20T09:11:44.650Z,32.18
2018-09-20T09:14:16.445Z,32.04
2018-09-20T09:16:46.137Z,31.62
2018-09-20T09:19:15.624Z,31.61
2018-09-20T09:21:45.336Z,31.25
2018-09-20T09:24:15.210Z,31.00
2018-09-20T09:26:45.046Z,31.20
2018-09-20T09:29:14.581Z,31.17
2018-09-20T09:31:44.162Z,30.74
2018-09-20T09:34:15.031Z,30.41
2018-09-20T09:36:45.082Z,30.06
2018-09-20T09:39:14.663Z,29.97
2018-09-20T09:41:45.115Z,29.91
2018-09-20T09:44:14.618Z,29.60
2018-09-20T09:46:44.101Z,29.41
2018-09-20T09:49:13.915Z,29.07
2018-09-20T09:51:43.482Z,28.90
2018-09-20T09:54:13.137Z,29.11
2018-09-20T09:56:42.635Z,29.60
2018-09-20T09:59:13.498Z,29.35
2018-09-20T10:01:43.001Z,29.40
2018-09-20T10:04:12.466Z,29.21
2018-09-20T10:06:42.319Z,29.16
2018-09-20T10:09:12.441Z,28.62
2018-09-20T10:11:41.937Z,28.30
2018-09-20T10:14:11.410Z,28.55
2018-09-20T10:16:40.929Z,28.56
2018-09-20T10:19:10.939Z,28.40
2018-09-20T10:21:40.429Z,28.56
2018-09-20T10:24:09.985Z,28.56
2018-09-20T10:26:39.441Z,28.17
2018-09-20T10:29:09.173Z,28.10
2018-09-20T10:31:38.694Z,28.14
2018-09-20T10:34:08.214Z,28.26
2018-09-20T10:36:37.749Z,28.35
2018-09-20T10:39:11.225Z,28.38
2018-09-20T10:41:40.801Z,28.20
2018-09-20T10:44:10.342Z,28.30
2018-09-20T10:46:41.213Z,28.20
2018-09-20T10:49:10.627Z,28.00
2018-09-20T10:51:41.719Z,27.96
2018-09-20T10:54:11.173Z,27.94
2018-09-20T10:56:41.938Z,27.83
2018-09-20T10:59:11.445Z,27.83
2018-09-20T11:01:40.951Z,27.93
2018-09-20T11:04:10.370Z,28.00
2018-09-20T11:06:39.849Z,28.19
2018-09-20T11:09:10.128Z,27.90
2018-09-20T11:11:39.682Z,27.84
2018-09-20T11:14:09.285Z,28.29
2018-09-20T11:16:39.937Z,28.49
2018-09-20T11:19:10.848Z,28.42
2018-09-20T11:21:40.501Z,28.45
2018-09-20T11:24:10.244Z,28.49
2018-09-20T11:26:39.741Z,28.36
2018-09-20T11:29:09.275Z,28.35
2018-09-20T11:31:39.502Z,28.31
2018-09-20T11:34:09.130Z,28.36
2018-09-20T11:36:38.946Z,28.34
2018-09-20T11:39:11.173Z,28.43
2018-09-20T11:41:40.899Z,28.32
2018-09-20T11:44:10.902Z,28.33
2018-09-20T11:46:40.611Z,28.48
2018-09-20T11:49:10.582Z,28.43
2018-09-20T11:51:41.794Z,28.44
2018-09-20T11:54:11.389Z,28.54
2018-09-20T11:56:41.151Z,28.58
2018-09-20T11:59:11.114Z,28.69
2018-09-20T12:01:40.849Z,28.65
2018-09-20T12:04:10.621Z,28.69
2018-09-20T12:06:40.396Z,28.71
2018-09-20T12:09:09.954Z,28.80
2018-09-20T12:11:39.602Z,28.73
2018-09-20T12:14:09.050Z,28.79
2018-09-20T12:16:38.541Z,29.00
2018-09-20T12:19:08.117Z,28.94
2018-09-20T12:21:38.260Z,28.89
2018-09-20T12:24:07.735Z,28.93
2018-09-20T12:26:37.211Z,28.83
2018-09-20T12:29:06.889Z,28.84
2018-09-20T12:31:36.566Z,28.96
2018-09-20T12:34:06.214Z,29.01
2018-09-20T12:36:35.741Z,29.04
2018-09-20T12:39:09.139Z,29.07
2018-09-20T12:41:38.885Z,29.18
2018-09-20T12:44:08.330Z,29.26
2018-09-20T12:46:38.204Z,29.46
2018-09-20T12:49:07.680Z,29.59
2018-09-20T12:51:37.258Z,29.79
2018-09-20T12:54:07.586Z,29.84
2018-09-20T12:56:37.083Z,30.00
2018-09-20T12:59:06.696Z,29.52
2018-09-20T13:01:36.509Z,29.48
2018-09-20T13:04:06.117Z,29.75
2018-09-20T13:06:35.640Z,29.96
2018-09-20T13:09:17.662Z,30.19
2018-09-20T13:11:47.128Z,30.26
2018-09-20T13:14:16.548Z,30.21
2018-09-20T13:16:46.038Z,30.52
2018-09-20T13:19:15.762Z,30.56
2018-09-20T13:21:45.250Z,30.60
2018-09-20T13:24:14.755Z,31.30
2018-09-20T13:26:44.270Z,31.56
2018-09-20T13:29:15.092Z,31.30
2018-09-20T13:31:44.722Z,31.42
2018-09-20T13:34:14.253Z,32.35
2018-09-20T13:36:44.026Z,33.03
2018-09-20T13:39:14.881Z,33.58
2018-09-20T13:41:44.442Z,32.33
2018-09-20T13:44:14.055Z,31.19
2018-09-20T13:46:43.684Z,31.13
2018-09-20T13:49:13.262Z,31.21
2018-09-20T13:51:42.716Z,31.41
2018-09-20T13:54:12.260Z,32.38
2018-09-20T13:56:41.760Z,33.69
2018-09-20T13:59:11.401Z,34.48
2018-09-20T14:01:40.926Z,34.72
2018-09-20T14:04:10.596Z,34.99
2018-09-20T14:06:40.418Z,34.42
2018-09-20T14:09:11.461Z,34.92
2018-09-20T14:11:41.635Z,36.10
2018-09-20T14:14:11.118Z,36.36
2018-09-20T14:16:40.765Z,37.32
2018-09-20T14:19:10.690Z,36.75
2018-09-20T14:21:40.353Z,35.42
2018-09-20T14:24:10.646Z,34.29
2018-09-20T14:26:42.023Z,33.27
2018-09-20T14:29:11.512Z,34.03
2018-09-20T14:31:40.953Z,34.29
2018-09-20T14:34:10.630Z,34.71
2018-09-20T14:36:40.165Z,35.40
2018-09-20T14:39:10.858Z,36.13
2018-09-20T14:41:40.890Z,37.53
2018-09-20T14:44:22.338Z,37.59
2018-09-20T14:46:52.395Z,37.89
2018-09-20T14:49:27.844Z,37.36
2018-09-20T14:51:57.293Z,37.09
2018-09-20T14:54:26.999Z,36.53
2018-09-20T14:56:56.734Z,36.84
2018-09-20T14:59:26.224Z,37.53
2018-09-20T15:01:56.063Z,37.64
2018-09-20T15:04:25.588Z,38.68
2018-09-20T15:07:01.803Z,39.03
2018-09-20T15:09:31.425Z,38.79
2018-09-20T15:12:01.256Z,38.18
2018-09-20T15:14:31.038Z,38.14
2018-09-20T15:17:00.682Z,37.70
2018-09-20T15:19:30.169Z,37.30
2018-09-20T15:21:59.711Z,37.19
2018-09-20T15:24:31.141Z,37.38
2018-09-20T15:27:00.806Z,37.45
2018-09-20T15:29:30.452Z,37.21
2018-09-20T15:31:59.976Z,36.48
2018-09-20T15:34:29.512Z,36.65
2018-09-20T15:36:59.522Z,36.81
2018-09-20T15:39:29.893Z,36.65
2018-09-20T15:41:59.634Z,36.21
2018-09-20T15:44:29.433Z,35.15
2018-09-20T15:46:59.957Z,33.68
2018-09-20T15:49:29.487Z,32.53
2018-09-20T15:51:59.098Z,31.76
2018-09-20T15:54:28.977Z,31.18
2018-09-20T15:57:00.034Z,30.70
2018-09-20T15:59:31.033Z,30.68
2018-09-20T16:02:01.536Z,30.67
2018-09-20T16:04:34.573Z,31.14
2018-09-20T16:07:04.612Z,30.95
2018-09-20T16:09:35.366Z,30.29
2018-09-20T16:12:04.935Z,30.08
2018-09-20T16:14:34.600Z,29.31
2018-09-20T16:17:04.126Z,29.03
2018-09-20T16:19:36.214Z,28.67
2018-09-20T16:22:05.728Z,27.93
2018-09-20T16:24:35.202Z,27.64
2018-09-20T16:27:04.944Z,27.51
2018-09-20T16:29:45.068Z,27.31
2018-09-20T16:36:45.279Z,27.10
2018-09-20T16:39:23.631Z,26.43
2018-09-20T16:41:56.907Z,26.31
2018-09-20T16:44:34.193Z,26.23
2018-09-20T16:47:04.474Z,26.26
2018-09-20T16:49:34.435Z,26.23
2018-09-20T16:52:06.488Z,26.18
2018-09-20T16:54:36.028Z,26.02
2018-09-20T16:57:05.634Z,25.92
2018-09-20T16:59:37.538Z,25.95
2018-09-20T17:02:07.109Z,26.17
2018-09-20T17:04:36.749Z,26.41
2018-09-20T17:07:06.367Z,26.46
2018-09-20T17:09:36.176Z,26.45
2018-09-20T17:12:06.739Z,26.28
2018-09-20T17:14:36.915Z,26.12
2018-09-20T17:17:12.322Z,26.10
2018-09-20T17:19:42.133Z,26.03
2018-09-20T17:22:11.679Z,25.64
2018-09-20T17:24:46.412Z,25.36
2018-09-20T17:27:16.965Z,25.05
2018-09-20T17:29:46.741Z,24.76
2018-09-20T17:32:17.145Z,24.48
2018-09-20T17:34:47.139Z,24.24
2018-09-20T17:37:18.427Z,24.07
2018-09-20T17:39:49.878Z,23.93
2018-09-20T17:42:29.576Z,23.92
2018-09-20T17:44:59.746Z,23.68
2018-09-20T17:47:29.648Z,23.56
2018-09-20T17:50:00.327Z,23.44
2018-09-20T17:52:31.439Z,23.22
2018-09-20T17:55:01.520Z,23.09
2018-09-20T17:57:34.514Z,23.04
2018-09-20T18:00:04.406Z,22.84
2018-09-20T18:02:35.652Z,22.80
2018-09-20T18:05:05.465Z,22.77
2018-09-20T18:07:35.063Z,22.70
2018-09-20T18:10:04.940Z,22.60
2018-09-20T18:12:35.034Z,22.54
2018-09-20T18:15:04.834Z,22.52
2018-09-20T18:17:36.512Z,22.43
2018-09-20T18:20:06.426Z,22.25
2018-09-20T18:22:39.181Z,22.19
2018-09-20T18:25:11.532Z,22.10
2018-09-20T18:27:41.144Z,22.02
2018-09-20T18:30:11.781Z,21.95
2018-09-20T18:32:44.605Z,21.79
2018-09-20T18:35:15.201Z,21.67
2018-09-20T18:37:50.843Z,21.57
2018-09-20T18:40:21.692Z,21.48
2018-09-20T18:46:24.615Z,21.41
2018-09-20T18:48:57.260Z,21.40
2018-09-20T18:51:38.016Z,21.33
2018-09-20T18:54:08.014Z,21.25
2018-09-20T18:56:47.907Z,21.12
2018-09-20T19:03:15.085Z,20.96
2018-09-20T19:06:45.950Z,20.87
2018-09-20T19:09:33.780Z,20.75
2018-09-20T19:12:10.978Z,20.57
2018-09-20T19:14:55.500Z,20.56
2018-09-20T19:17:26.449Z,20.46
2018-09-20T19:19:56.186Z,20.43
2018-09-20T19:22:25.913Z,20.36
2018-09-20T19:24:55.999Z,20.35
2018-09-20T19:27:25.708Z,20.27
2018-09-20T19:29:55.763Z,20.25
2018-09-20T19:32:26.354Z,20.22
2018-09-20T19:34:57.291Z,20.14
2018-09-20T19:37:26.941Z,20.07
2018-09-20T19:40:06.338Z,20.01
2018-09-20T19:42:37.068Z,19.97
2018-09-20T19:45:07.098Z,19.96
2018-09-20T19:47:37.615Z,19.95
2018-09-20T19:50:07.986Z,19.89
2018-09-20T19:53:52.509Z,19.90
2018-09-20T19:56:22.243Z,19.84
2018-09-20T19:58:52.467Z,19.80
2018-09-20T20:01:22.600Z,19.71
2018-09-20T20:03:52.672Z,19.68
2018-09-20T20:06:22.265Z,19.61
2018-09-20T20:08:52.600Z,19.57
2018-09-20T20:11:22.352Z,19.46
2018-09-20T20:13:52.024Z,19.40
2018-09-20T20:16:22.320Z,19.36
2018-09-20T20:19:03.841Z,19.32
2018-09-20T20:21:35.198Z,19.25
2018-09-20T20:24:06.022Z,19.18
2018-09-20T20:26:36.497Z,19.12
2018-09-20T20:29:06.182Z,19.06
2018-09-20T20:31:35.982Z,19.00
2018-09-20T20:34:06.132Z,18.89
2018-09-20T20:36:38.070Z,18.87
2018-09-20T20:39:09.378Z,18.85
2018-09-20T20:41:39.179Z,18.84
2018-09-20T20:44:08.803Z,18.78
2018-09-20T20:46:38.541Z,18.77
2018-09-20T20:49:52.795Z,18.81
2018-09-20T20:52:24.264Z,18.85
2018-09-20T20:55:02.066Z,18.77
2018-09-20T20:57:32.234Z,18.64
2018-09-20T21:00:02.097Z,18.56
2018-09-20T21:02:32.560Z,18.45
2018-09-20T21:05:02.184Z,18.40
2018-09-20T21:07:32.065Z,18.37
2018-09-20T21:10:01.781Z,18.32
2018-09-20T21:12:32.697Z,18.31
2018-09-20T21:15:02.367Z,18.21
2018-09-20T21:17:32.408Z,18.16
2018-09-20T21:20:02.038Z,18.13
2018-09-20T21:22:32.051Z,18.07
2018-09-20T21:25:01.668Z,18.05
2018-09-20T21:27:31.516Z,18.01
2018-09-20T21:30:01.221Z,18.04
2018-09-20T21:32:30.834Z,18.01
2018-09-20T21:35:00.541Z,17.95
2018-09-20T21:37:30.407Z,17.91
2018-09-20T21:40:00.144Z,17.88
2018-09-20T21:42:29.703Z,17.86
2018-09-20T21:45:02.103Z,17.82
2018-09-20T21:47:33.034Z,17.77
2018-09-20T21:50:02.684Z,17.75
2018-09-20T21:52:32.522Z,17.69
2018-09-20T21:55:02.456Z,17.61
2018-09-20T21:57:33.072Z,17.59
2018-09-20T22:00:03.446Z,17.50
2018-09-20T22:02:38.378Z,17.46
2018-09-20T22:05:08.136Z,17.45
2018-09-20T22:07:37.894Z,17.41
2018-09-20T22:10:08.086Z,17.42
2018-09-20T22:12:38.084Z,17.34
2018-09-20T22:15:11.876Z,17.29
2018-09-20T22:17:41.950Z,17.29
2018-09-20T22:20:11.631Z,17.27
2018-09-20T22:22:41.539Z,17.23
2018-09-20T22:25:12.677Z,17.19
2018-09-20T22:27:42.478Z,17.13
2018-09-20T22:30:12.182Z,17.12
2018-09-20T22:32:42.300Z,17.08
2018-09-20T22:35:13.753Z,17.07
2018-09-20T22:37:43.278Z,17.04
2018-09-20T22:40:15.124Z,16.98
2018-09-20T22:42:45.075Z,17.02
2018-09-20T22:45:14.660Z,16.96
2018-09-20T22:47:44.135Z,16.94
2018-09-20T22:50:16.034Z,16.95
2018-09-20T22:52:45.485Z,16.93
2018-09-20T22:55:15.101Z,16.94
2018-09-20T22:57:44.597Z,16.98
2018-09-20T23:00:14.221Z,17.00
2018-09-20T23:02:43.891Z,16.95
2018-09-20T23:05:13.940Z,16.87
2018-09-20T23:07:43.768Z,16.81
2018-09-20T23:10:13.419Z,16.79
2018-09-20T23:12:43.274Z,16.76
2018-09-20T23:15:12.902Z,16.76
2018-09-20T23:17:42.499Z,16.77
2018-09-20T23:20:12.016Z,16.79
2018-09-20T23:22:42.290Z,16.78
2018-09-20T23:25:12.157Z,16.74
2018-09-20T23:27:41.761Z,16.72
2018-09-20T23:30:23.125Z,16.61
2018-09-20T23:32:52.909Z,16.60
2018-09-20T23:35:23.834Z,16.56
2018-09-20T23:37:53.462Z,16.53
2018-09-20T23:40:22.959Z,16.55
2018-09-20T23:42:52.774Z,16.58
2018-09-20T23:45:24.711Z,16.64
2018-09-20T23:47:54.548Z,16.73
2018-09-20T23:50:24.260Z,16.71
2018-09-20T23:52:53.900Z,16.79
2018-09-20T23:55:23.469Z,16.82
2018-09-20T23:57:52.992Z,16.75
